createdAt,value
2022-11-19T00:02:26.862Z,9.40
2022-11-19T00:05:15.716Z,7.33
2022-11-19T00:08:04.571Z,8.20
2022-11-19T00:10:53.320Z,8.50
2022-11-19T00:13:43.103Z,9.77
2022-11-19T00:16:31.892Z,8.77
2022-11-19T00:19:20.895Z,12.90
2022-11-19T00:22:09.832Z,12.27
2022-11-19T00:24:58.615Z,12.90
2022-11-19T00:27:47.527Z,10.40
2022-11-19T00:30:52.918Z,10.13
2022-11-19T00:33:42.463Z,12.70
2022-11-19T00:36:31.662Z,12.10
2022-11-19T00:39:21.038Z,13.20
2022-11-19T00:42:10.074Z,14.07
2022-11-19T00:44:58.852Z,13.37
2022-11-19T00:47:48.985Z,13.70
2022-11-19T00:50:37.816Z,15.67
2022-11-19T00:53:26.693Z,15.17
2022-11-19T00:56:16.486Z,14.00
2022-11-19T00:59:06.106Z,17.77
2022-11-19T01:01:54.879Z,15.67
2022-11-19T01:04:45.150Z,16.20
2022-11-19T01:07:34.004Z,16.90
2022-11-19T01:10:22.896Z,18.77
2022-11-19T01:13:29.304Z,19.53
2022-11-19T01:16:19.144Z,20.97
2022-11-19T01:19:08.952Z,19.93
2022-11-19T01:21:59.112Z,17.90
2022-11-19T01:24:47.939Z,18.60
2022-11-19T01:27:36.704Z,19.87
2022-11-19T01:30:25.474Z,19.30
2022-11-19T01:33:14.540Z,17.37
2022-11-19T01:36:04.157Z,17.43
2022-11-19T01:38:54.732Z,21.90
2022-11-19T01:41:43.515Z,20.00
2022-11-19T01:45:00.347Z,19.30
2022-11-19T01:47:49.226Z,19.90
2022-11-19T01:50:40.727Z,17.97
2022-11-19T01:53:31.283Z,20.43
2022-11-19T01:56:22.521Z,20.00
2022-11-19T01:59:12.781Z,21.53
2022-11-19T02:02:01.612Z,23.80
2022-11-19T02:04:51.875Z,20.23
2022-11-19T02:07:42.535Z,24.67
2022-11-19T02:10:40.106Z,26.07
2022-11-19T02:13:32.958Z,21.50
2022-11-19T02:16:24.863Z,22.47
2022-11-19T02:19:19.451Z,22.77
2022-11-19T02:22:14.724Z,23.60
2022-11-19T02:25:06.701Z,25.90
2022-11-19T02:28:09.181Z,22.23
2022-11-19T02:31:02.085Z,28.57
2022-11-19T02:33:56.098Z,23.47
2022-11-19T02:36:46.650Z,25.40
2022-11-19T02:39:40.422Z,23.03
2022-11-19T02:42:30.211Z,24.80
2022-11-19T02:45:21.084Z,32.27
2022-11-19T02:48:13.551Z,21.30
2022-11-19T02:51:03.539Z,27.53
2022-11-19T02:53:52.933Z,27.63
2022-11-19T02:56:49.273Z,22.40
2022-11-19T02:59:57.713Z,27.10
2022-11-19T03:03:06.419Z,25.77
2022-11-19T03:06:00.277Z,25.83
2022-11-19T03:08:49.294Z,29.97
2022-11-19T03:11:38.090Z,30.00
2022-11-19T03:14:46.115Z,27.40
2022-11-19T03:17:38.628Z,25.60
2022-11-19T03:20:30.654Z,29.93
2022-11-19T03:23:23.493Z,30.90
2022-11-19T03:26:16.731Z,30.03
2022-11-19T03:29:07.588Z,28.23
2022-11-19T03:32:00.081Z,28.17
2022-11-19T03:34:50.599Z,26.57
2022-11-19T03:37:41.139Z,27.50
2022-11-19T03:40:31.957Z,28.57
2022-11-19T03:43:22.264Z,30.47
2022-11-19T03:46:12.992Z,27.50
2022-11-19T03:49:02.199Z,29.23
2022-11-19T03:51:53.820Z,29.67
2022-11-19T03:54:42.848Z,30.10
2022-11-19T03:57:34.209Z,27.07
2022-11-19T04:00:23.003Z,29.63
2022-11-19T04:03:11.799Z,29.67
2022-11-19T04:06:00.619Z,30.13
2022-11-19T04:08:49.363Z,27.43
2022-11-19T04:11:38.492Z,28.40
2022-11-19T04:14:28.766Z,34.90
2022-11-19T04:17:17.981Z,33.73
2022-11-19T04:20:07.462Z,31.60
2022-11-19T04:22:56.233Z,32.13
2022-11-19T04:25:47.531Z,35.13
2022-11-19T04:28:36.591Z,32.90
2022-11-19T04:31:26.653Z,30.93
2022-11-19T04:34:15.407Z,33.27
2022-11-19T04:37:04.170Z,29.90
2022-11-19T04:39:52.935Z,30.43
2022-11-19T04:42:41.813Z,31.97
2022-11-19T04:45:30.573Z,28.67
2022-11-19T04:48:20.698Z,32.07
2022-11-19T04:51:09.503Z,33.67
2022-11-19T04:53:58.271Z,32.67
2022-11-19T04:56:47.045Z,30.90
2022-11-19T04:59:35.805Z,33.30
2022-11-19T05:02:24.860Z,33.40
2022-11-19T05:05:15.015Z,31.77
2022-11-19T05:08:03.814Z,32.70
2022-11-19T05:10:52.610Z,33.70
2022-11-19T05:13:41.400Z,30.40
2022-11-19T05:16:30.223Z,31.80
2022-11-19T05:19:19.184Z,31.40
2022-11-19T05:22:09.412Z,29.20
2022-11-19T05:24:58.179Z,29.53
2022-11-19T05:27:46.998Z,28.87
2022-11-19T05:30:35.800Z,29.50
2022-11-19T05:33:24.579Z,25.90
2022-11-19T05:36:13.341Z,26.47
2022-11-19T05:39:03.409Z,26.23
2022-11-19T05:41:52.156Z,29.03
2022-11-19T05:44:40.911Z,30.70
2022-11-19T05:47:29.694Z,25.60
2022-11-19T05:50:18.587Z,26.00
2022-11-19T05:53:07.358Z,26.40
2022-11-19T05:55:57.448Z,26.50
2022-11-19T05:58:46.250Z,25.40
2022-11-19T06:01:35.067Z,26.10
2022-11-19T06:04:23.803Z,29.07
2022-11-19T06:07:12.731Z,23.87
2022-11-19T06:10:01.530Z,27.80
2022-11-19T06:12:51.627Z,26.93
2022-11-19T06:15:40.371Z,24.57
2022-11-19T06:18:29.130Z,27.90
2022-11-19T06:21:17.930Z,26.33
2022-11-19T06:24:06.934Z,25.53
2022-11-19T06:26:55.777Z,22.53
2022-11-19T06:29:45.875Z,28.67
2022-11-19T06:32:34.927Z,23.93
2022-11-19T06:35:23.689Z,21.93
2022-11-19T06:38:12.507Z,26.10
2022-11-19T06:41:01.264Z,26.30
2022-11-19T06:43:50.123Z,24.53
2022-11-19T06:46:40.220Z,23.57
2022-11-19T06:49:28.956Z,23.57
2022-11-19T06:52:17.784Z,26.47
2022-11-19T06:55:06.953Z,19.10
2022-11-19T06:57:56.048Z,23.87
2022-11-19T07:00:46.609Z,25.93
2022-11-19T07:03:36.711Z,24.23
2022-11-19T07:06:25.459Z,19.90
2022-11-19T07:09:14.221Z,20.37
2022-11-19T07:12:03.009Z,21.23
2022-11-19T07:14:51.796Z,21.00
2022-11-19T07:17:42.208Z,20.50
2022-11-19T07:20:32.319Z,17.63
2022-11-19T07:23:21.084Z,19.70
2022-11-19T07:26:09.880Z,16.73
2022-11-19T07:29:04.266Z,19.87
2022-11-19T07:31:53.532Z,18.97
2022-11-19T07:34:42.330Z,16.60
2022-11-19T07:37:32.449Z,17.53
2022-11-19T07:40:21.180Z,17.53
2022-11-19T07:43:08.981Z,13.73
2022-11-19T07:45:57.760Z,16.27
2022-11-19T07:48:46.569Z,22.53
2022-11-19T07:51:35.354Z,13.63
2022-11-19T07:54:25.474Z,14.50
2022-11-19T07:57:14.419Z,15.37
2022-11-19T08:00:03.408Z,12.53
2022-11-19T08:02:52.206Z,14.07
2022-11-19T08:05:41.928Z,13.73
2022-11-19T08:08:30.726Z,20.03
2022-11-19T08:11:21.147Z,14.13
2022-11-19T08:14:09.905Z,14.50
2022-11-19T08:17:24.525Z,15.10
2022-11-19T08:20:13.312Z,11.80
2022-11-19T08:23:02.193Z,13.83
2022-11-19T08:25:52.866Z,11.80
2022-11-19T08:28:42.970Z,15.03
2022-11-19T08:31:31.823Z,13.10
2022-11-19T08:34:22.323Z,11.80
2022-11-19T08:37:13.500Z,13.23
2022-11-19T08:40:02.347Z,12.90
2022-11-19T08:43:02.424Z,16.67
2022-11-19T08:45:54.742Z,11.83
2022-11-19T08:48:43.536Z,13.90
2022-11-19T08:51:35.253Z,12.60
2022-11-19T08:54:24.037Z,11.63
2022-11-19T08:57:13.332Z,13.07
2022-11-19T09:00:06.299Z,13.03
2022-11-19T09:02:57.105Z,11.73
2022-11-19T09:05:45.915Z,13.67
2022-11-19T09:08:35.184Z,11.53
2022-11-19T09:11:24.318Z,10.97
2022-11-19T09:14:13.287Z,10.00
2022-11-19T09:17:02.121Z,10.40
2022-11-19T09:19:52.282Z,9.67
2022-11-19T09:22:41.072Z,10.53
2022-11-19T09:25:30.194Z,8.57
2022-11-19T09:28:19.001Z,8.97
2022-11-19T09:31:08.478Z,9.97
2022-11-19T09:33:57.521Z,11.10
2022-11-19T09:36:47.660Z,10.10
2022-11-19T09:39:36.620Z,10.33
2022-11-19T09:42:28.856Z,9.67
2022-11-19T09:45:20.060Z,9.00
2022-11-19T09:48:18.990Z,7.80
2022-11-19T09:51:10.785Z,9.30
2022-11-19T09:54:03.658Z,5.63
2022-11-19T09:56:54.549Z,5.27
2022-11-19T09:59:43.395Z,7.90
2022-11-19T10:02:32.354Z,5.70
2022-11-19T10:05:26.592Z,9.27
2022-11-19T10:08:24.140Z,8.70
2022-11-19T10:11:22.099Z,10.70
2022-11-19T10:14:17.089Z,8.43
2022-11-19T10:17:10.724Z,8.00
2022-11-19T10:20:07.845Z,8.50
2022-11-19T10:22:58.331Z,9.73
2022-11-19T10:25:47.910Z,8.97
2022-11-19T10:28:39.371Z,8.37
2022-11-19T10:31:34.612Z,5.07
2022-11-19T10:34:24.289Z,7.17
2022-11-19T10:37:14.988Z,5.10
2022-11-19T10:40:06.721Z,6.93
2022-11-19T10:42:58.107Z,6.10
2022-11-19T10:45:48.226Z,5.07
2022-11-19T10:48:39.329Z,5.57
2022-11-19T10:51:29.822Z,6.63
2022-11-19T10:54:23.278Z,7.20
2022-11-19T10:57:16.628Z,7.70
2022-11-19T11:00:05.632Z,7.43
2022-11-19T11:03:01.355Z,7.00
2022-11-19T11:06:01.959Z,5.57
2022-11-19T11:08:52.098Z,6.17
2022-11-19T11:11:58.751Z,6.07
2022-11-19T11:14:54.822Z,7.23
2022-11-19T11:17:45.929Z,8.83
2022-11-19T11:20:36.827Z,6.60
2022-11-19T11:23:26.746Z,8.33
2022-11-19T11:26:20.072Z,8.47
2022-11-19T11:29:25.425Z,7.60
2022-11-19T11:32:27.950Z,8.90
2022-11-19T11:35:33.021Z,7.60
2022-11-19T11:38:24.279Z,8.40
2022-11-19T11:44:30.480Z,8.77
2022-11-19T11:47:20.109Z,8.80
2022-11-19T11:50:10.306Z,9.47
2022-11-19T11:52:59.174Z,8.50
2022-11-19T11:55:58.120Z,7.50
2022-11-19T11:58:46.979Z,6.27
2022-11-19T12:01:35.719Z,6.80
2022-11-19T12:04:25.291Z,8.23
2022-11-19T12:07:18.443Z,7.30
2022-11-19T12:10:15.517Z,5.63
2022-11-19T12:13:27.946Z,7.80
2022-11-19T12:16:20.804Z,8.10
2022-11-19T12:19:15.178Z,8.90
2022-11-19T12:22:08.178Z,8.57
2022-11-19T12:25:09.943Z,8.47
2022-11-19T12:28:06.014Z,8.03
2022-11-19T12:31:02.385Z,6.40
2022-11-19T12:34:03.458Z,8.73
2022-11-19T12:36:58.575Z,8.80
2022-11-19T12:39:48.224Z,5.13
2022-11-19T12:42:45.669Z,6.20
2022-11-19T12:45:39.779Z,6.70
2022-11-19T12:48:40.139Z,6.80
2022-11-19T12:51:34.634Z,5.00
2022-11-19T12:54:35.145Z,7.33
2022-11-19T12:57:36.949Z,6.37
2022-11-19T13:00:26.645Z,7.10
2022-11-19T13:03:19.044Z,6.00
2022-11-19T13:06:16.711Z,6.50
2022-11-19T13:09:09.409Z,6.00
2022-11-19T13:12:03.290Z,6.37
2022-11-19T13:14:55.344Z,5.73
2022-11-19T13:17:45.331Z,6.97
2022-11-19T13:20:38.728Z,6.17
2022-11-19T13:23:30.543Z,6.30
2022-11-19T13:26:23.010Z,5.83
2022-11-19T13:29:21.947Z,5.43
2022-11-19T13:32:25.271Z,6.87
2022-11-19T13:35:18.538Z,6.23
2022-11-19T13:38:14.598Z,5.37
2022-11-19T13:41:07.605Z,5.33
2022-11-19T13:44:14.864Z,7.07
2022-11-19T13:47:03.830Z,7.40
2022-11-19T13:49:54.279Z,5.90
2022-11-19T13:52:46.522Z,6.10
2022-11-19T13:55:37.319Z,6.47
2022-11-19T13:58:30.966Z,11.23
2022-11-19T14:01:39.609Z,4.23
2022-11-19T14:04:35.373Z,5.60
2022-11-19T14:07:33.614Z,7.97
2022-11-19T14:10:24.847Z,7.40
2022-11-19T14:13:19.337Z,7.40
2022-11-19T14:16:33.866Z,7.93
2022-11-19T14:19:40.793Z,7.43
2022-11-19T14:22:50.484Z,8.27
2022-11-19T14:26:03.565Z,7.93
2022-11-19T14:28:53.278Z,8.77
2022-11-19T14:31:56.925Z,8.57
2022-11-19T14:34:50.035Z,8.10
2022-11-19T14:37:40.615Z,11.77
2022-11-19T14:40:30.569Z,8.87
2022-11-19T14:43:43.598Z,7.57
2022-11-19T14:46:32.365Z,9.90
2022-11-19T14:49:38.748Z,8.87
2022-11-19T14:52:30.096Z,7.60
2022-11-19T14:55:21.389Z,9.43
2022-11-19T14:58:21.319Z,6.53
2022-11-19T15:01:16.673Z,7.63
2022-11-19T15:04:11.571Z,8.20
2022-11-19T15:07:01.665Z,7.70
2022-11-19T15:10:04.162Z,10.20
2022-11-19T15:13:03.417Z,8.23
2022-11-19T15:15:53.826Z,8.00
2022-11-19T15:19:00.076Z,8.40
2022-11-19T15:21:55.824Z,8.13
2022-11-19T15:24:50.454Z,7.50
2022-11-19T15:27:52.350Z,7.60
2022-11-19T15:30:52.103Z,12.20
2022-11-19T15:33:58.998Z,9.53
2022-11-19T15:36:48.831Z,8.23
2022-11-19T15:39:39.886Z,10.87
2022-11-19T15:42:30.948Z,6.80
2022-11-19T15:45:22.644Z,11.13
2022-11-19T15:48:12.342Z,12.23
2022-11-19T15:51:02.474Z,8.87
2022-11-19T15:54:02.353Z,9.07
2022-11-19T15:56:51.862Z,9.80
2022-11-19T15:59:40.641Z,9.73
2022-11-19T16:02:34.200Z,10.00
2022-11-19T16:05:24.050Z,9.27
2022-11-19T16:08:14.603Z,10.20
2022-11-19T16:11:21.311Z,9.63
2022-11-19T16:14:34.008Z,7.93
2022-11-19T16:17:43.190Z,8.53
2022-11-19T16:20:34.936Z,10.23
2022-11-19T16:23:24.290Z,8.60
2022-11-19T16:26:13.051Z,8.37
2022-11-19T16:29:02.789Z,10.50
2022-11-19T16:31:51.968Z,7.93
2022-11-19T16:34:40.730Z,9.10
2022-11-19T16:37:30.883Z,9.23
2022-11-19T16:40:20.579Z,10.30
2022-11-19T16:43:08.398Z,8.67
2022-11-19T16:45:57.424Z,11.77
2022-11-19T16:48:56.687Z,9.90
2022-11-19T16:51:53.243Z,8.27
2022-11-19T16:54:47.958Z,10.80
2022-11-19T16:57:36.803Z,9.97
2022-11-19T17:00:28.355Z,9.97
